sensor_id;sensor_type;location;lat;lon;timestamp;pressure;altitude;pressure_sealevel;temperature;humidity
73103;BME280;61294;65.988;29.172;2024-03-02T00:01:40;98757.50;;;-0.80;100.00
73103;BME280;61294;65.988;29.172;2024-03-02T00:04:11;98763.53;;;-0.81;100.00
73103;BME280;61294;65.988;29.172;2024-03-02T00:06:58;98756.56;;;-0.82;100.00
73103;BME280;61294;65.988;29.172;2024-03-02T00:09:30;98754.78;;;-0.83;100.00
73103;BME280;61294;65.988;29.172;2024-03-02T00:14:52;98759.03;;;-0.85;100.00
73103;BME280;61294;65.988;29.172;2024-03-02T00:17:28;98755.56;;;-0.85;100.00
73103;BME280;61294;65.988;29.172;2024-03-02T00:22:59;98744.31;;;-0.86;100.00
73103;BME280;61294;65.988;29.172;2024-03-02T00:28:26;98750.31;;;-0.87;100.00
73103;BME280;61294;65.988;29.172;2024-03-02T00:31:10;98744.50;;;-0.81;100.00
73103;BME280;61294;65.988;29.172;2024-03-02T00:33:45;98744.28;;;-0.88;100.00
73103;BME280;61294;65.988;29.172;2024-03-02T00:36:15;98740.81;;;-0.88;100.00
73103;BME280;61294;65.988;29.172;2024-03-02T00:38:59;98742.50;;;-0.89;100.00
73103;BME280;61294;65.988;29.172;2024-03-02T00:41:28;98728.63;;;-0.91;100.00
73103;BME280;61294;65.988;29.172;2024-03-02T00:43:58;98742.50;;;-0.89;100.00
73103;BME280;61294;65.988;29.172;2024-03-02T00:46:24;98744.16;;;-0.91;100.00
73103;BME280;61294;65.988;29.172;2024-03-02T00:48:59;98745.00;;;-0.90;100.00
73103;BME280;61294;65.988;29.172;2024-03-02T00:51:26;98741.50;;;-0.92;100.00
73103;BME280;61294;65.988;29.172;2024-03-02T00:54:02;98746.78;;;-0.89;100.00
73103;BME280;61294;65.988;29.172;2024-03-02T00:56:29;98740.88;;;-0.87;100.00
73103;BME280;61294;65.988;29.172;2024-03-02T00:58:55;98742.50;;;-0.89;100.00
73103;BME280;61294;65.988;29.172;2024-03-02T01:01:21;98744.19;;;-0.89;100.00
73103;BME280;61294;65.988;29.172;2024-03-02T01:03:46;98755.34;;;-0.90;100.00
73103;BME280;61294;65.988;29.172;2024-03-02T01:06:12;98755.28;;;-0.92;100.00
73103;BME280;61294;65.988;29.172;2024-03-02T01:08:38;98756.03;;;-0.94;100.00
73103;BME280;61294;65.988;29.172;2024-03-02T01:11:03;98756.94;;;-0.94;100.00
73103;BME280;61294;65.988;29.172;2024-03-02T01:13:29;98750.88;;;-0.94;100.00
73103;BME280;61294;65.988;29.172;2024-03-02T01:15:55;98752.59;;;-0.95;100.00
73103;BME280;61294;65.988;29.172;2024-03-02T01:18:21;98743.81;;;-0.98;100.00
73103;BME280;61294;65.988;29.172;2024-03-02T01:20:47;98751.56;;;-0.98;100.00
73103;BME280;61294;65.988;29.172;2024-03-02T01:23:13;98763.69;;;-0.97;100.00
73103;BME280;61294;65.988;29.172;2024-03-02T01:25:38;98767.97;;;-0.98;100.00
73103;BME280;61294;65.988;29.172;2024-03-02T01:28:04;98760.28;;;-0.96;100.00
73103;BME280;61294;65.988;29.172;2024-03-02T01:30:29;98762.75;;;-0.99;100.00
73103;BME280;61294;65.988;29.172;2024-03-02T01:32:57;98756.03;;;-0.94;100.00
73103;BME280;61294;65.988;29.172;2024-03-02T01:35:30;98748.22;;;-0.96;100.00
73103;BME280;61294;65.988;29.172;2024-03-02T01:37:56;98757.63;;;-0.98;100.00
73103;BME280;61294;65.988;29.172;2024-03-02T01:40:21;98769.66;;;-0.98;100.00
73103;BME280;61294;65.988;29.172;2024-03-02T01:42:54;98756.59;;;-1.01;100.00
73103;BME280;61294;65.988;29.172;2024-03-02T01:45:32;98760.91;;;-1.02;100.00
73103;BME280;61294;65.988;29.172;2024-03-02T01:48:05;98758.25;;;-1.03;100.00
73103;BME280;61294;65.988;29.172;2024-03-02T01:50:32;98756.66;;;-1.00;100.00
73103;BME280;61294;65.988;29.172;2024-03-02T01:55:59;98743.50;;;-1.06;100.00
73103;BME280;61294;65.988;29.172;2024-03-02T01:58:44;98752.91;;;-1.08;100.00
73103;BME280;61294;65.988;29.172;2024-03-02T02:04:14;98771.75;;;-1.11;100.00
73103;BME280;61294;65.988;29.172;2024-03-02T02:07:00;98769.69;;;-1.18;100.00
73103;BME280;61294;65.988;29.172;2024-03-02T02:09:44;98758.53;;;-1.17;100.00
73103;BME280;61294;65.988;29.172;2024-03-02T02:12:19;98773.03;;;-1.20;100.00
73103;BME280;61294;65.988;29.172;2024-03-02T02:15:33;98778.34;;;-1.17;100.00
73103;BME280;61294;65.988;29.172;2024-03-02T02:18:25;98776.34;;;-1.23;100.00
73103;BME280;61294;65.988;29.172;2024-03-02T02:21:04;98776.34;;;-1.23;100.00
73103;BME280;61294;65.988;29.172;2024-03-02T02:23:39;98776.44;;;-1.22;100.00
73103;BME280;61294;65.988;29.172;2024-03-02T02:26:15;98776.34;;;-1.23;100.00
73103;BME280;61294;65.988;29.172;2024-03-02T02:28:43;98778.88;;;-1.25;100.00
73103;BME280;61294;65.988;29.172;2024-03-02T02:31:19;98762.97;;;-1.34;100.00
73103;BME280;61294;65.988;29.172;2024-03-02T02:34:25;98783.19;;;-1.25;100.00
73103;BME280;61294;65.988;29.172;2024-03-02T02:37:10;98783.91;;;-1.28;100.00
73103;BME280;61294;65.988;29.172;2024-03-02T02:39:53;98777.09;;;-1.26;100.00
73103;BME280;61294;65.988;29.172;2024-03-02T02:42:23;98785.69;;;-1.27;100.00
73103;BME280;61294;65.988;29.172;2024-03-02T02:44:51;98783.84;;;-1.29;100.00
73103;BME280;61294;65.988;29.172;2024-03-02T02:47:17;98774.88;;;-1.37;100.00
73103;BME280;61294;65.988;29.172;2024-03-02T02:49:44;98788.06;;;-1.31;100.00
73103;BME280;61294;65.988;29.172;2024-03-02T02:52:20;98805.53;;;-1.26;100.00
73103;BME280;61294;65.988;29.172;2024-03-02T02:54:49;98793.38;;;-1.28;100.00
73103;BME280;61294;65.988;29.172;2024-03-02T02:57:18;98791.75;;;-1.26;100.00
73103;BME280;61294;65.988;29.172;2024-03-02T02:59:48;98801.81;;;-1.32;100.00
73103;BME280;61294;65.988;29.172;2024-03-02T03:02:19;98808.78;;;-1.30;100.00
73103;BME280;61294;65.988;29.172;2024-03-02T03:04:47;98809.63;;;-1.31;100.00
73103;BME280;61294;65.988;29.172;2024-03-02T03:07:22;98817.16;;;-1.35;100.00
73103;BME280;61294;65.988;29.172;2024-03-02T03:09:48;98821.72;;;-1.30;100.00
73103;BME280;61294;65.988;29.172;2024-03-02T03:12:15;98825.00;;;-1.34;100.00
73103;BME280;61294;65.988;29.172;2024-03-02T03:14:43;98815.34;;;-1.38;100.00
73103;BME280;61294;65.988;29.172;2024-03-02T03:20:00;98818.53;;;-1.44;100.00
73103;BME280;61294;65.988;29.172;2024-03-02T03:25:36;98826.16;;;-1.47;100.00
73103;BME280;61294;65.988;29.172;2024-03-02T03:28:11;98820.06;;;-1.47;100.00
73103;BME280;61294;65.988;29.172;2024-03-02T03:30:39;98828.50;;;-1.51;100.00
73103;BME280;61294;65.988;29.172;2024-03-02T03:33:18;98827.81;;;-1.47;100.00
73103;BME280;61294;65.988;29.172;2024-03-02T03:36:08;98822.59;;;-1.49;100.00
73103;BME280;61294;65.988;29.172;2024-03-02T03:38:43;98819.88;;;-1.52;100.00
73103;BME280;61294;65.988;29.172;2024-03-02T03:41:26;98820.03;;;-1.67;100.00
73103;BME280;61294;65.988;29.172;2024-03-02T03:44:02;98817.44;;;-1.67;100.00
73103;BME280;61294;65.988;29.172;2024-03-02T03:46:28;98822.72;;;-1.65;100.00
73103;BME280;61294;65.988;29.172;2024-03-02T03:49:03;98815.78;;;-1.66;100.00
73103;BME280;61294;65.988;29.172;2024-03-02T03:51:29;98819.03;;;-1.70;100.00
73103;BME280;61294;65.988;29.172;2024-03-02T03:54:07;98811.34;;;-1.69;100.00
73103;BME280;61294;65.988;29.172;2024-03-02T03:56:50;98825.97;;;-1.69;100.00
73103;BME280;61294;65.988;29.172;2024-03-02T04:02:16;98825.00;;;-1.71;100.00
73103;BME280;61294;65.988;29.172;2024-03-02T04:04:54;98825.97;;;-1.69;100.00
73103;BME280;61294;65.988;29.172;2024-03-02T04:07:30;98831.81;;;-1.74;100.00
73103;BME280;61294;65.988;29.172;2024-03-02T04:10:05;98824.66;;;-1.79;100.00
73103;BME280;61294;65.988;29.172;2024-03-02T04:12:33;98828.19;;;-1.77;100.00
73103;BME280;61294;65.988;29.172;2024-03-02T04:15:01;98838.56;;;-1.76;100.00
73103;BME280;61294;65.988;29.172;2024-03-02T04:17:37;98830.03;;;-1.75;100.00
73103;BME280;61294;65.988;29.172;2024-03-02T04:20:06;98824.78;;;-1.76;100.00
73103;BME280;61294;65.988;29.172;2024-03-02T04:25:36;98829.09;;;-1.95;100.00
73103;BME280;61294;65.988;29.172;2024-03-02T04:28:02;98814.41;;;-1.96;100.00
73103;BME280;61294;65.988;29.172;2024-03-02T04:30:28;98843.31;;;-1.85;100.00
73103;BME280;61294;65.988;29.172;2024-03-02T04:32:56;98852.00;;;-1.83;100.00
73103;BME280;61294;65.988;29.172;2024-03-02T04:35:22;98845.91;;;-1.85;100.00
73103;BME280;61294;65.988;29.172;2024-03-02T04:37:47;98859.91;;;-1.80;100.00
73103;BME280;61294;65.988;29.172;2024-03-02T04:40:13;98860.13;;;-1.75;100.00
73103;BME280;61294;65.988;29.172;2024-03-02T04:42:38;98852.31;;;-1.77;100.00
73103;BME280;61294;65.988;29.172;2024-03-02T04:45:04;98854.59;;;-1.83;100.00
73103;BME280;61294;65.988;29.172;2024-03-02T04:47:33;98851.34;;;-1.79;100.00
73103;BME280;61294;65.988;29.172;2024-03-02T04:50:01;98848.75;;;-1.79;100.00
73103;BME280;61294;65.988;29.172;2024-03-02T04:52:26;98845.00;;;-1.85;100.00
73103;BME280;61294;65.988;29.172;2024-03-02T04:54:53;98856.31;;;-1.83;100.00
73103;BME280;61294;65.988;29.172;2024-03-02T04:57:37;98855.03;;;-1.92;100.00
73103;BME280;61294;65.988;29.172;2024-03-02T05:00:02;98858.66;;;-1.88;100.00
73103;BME280;61294;65.988;29.172;2024-03-02T05:02:32;98848.88;;;-1.95;100.00
73103;BME280;61294;65.988;29.172;2024-03-02T05:05:00;98850.75;;;-1.91;100.00
73103;BME280;61294;65.988;29.172;2024-03-02T05:07:27;98867.81;;;-1.95;100.00
73103;BME280;61294;65.988;29.172;2024-03-02T05:09:55;98867.16;;;-1.91;100.00
73103;BME280;61294;65.988;29.172;2024-03-02T05:12:21;98868.16;;;-1.87;100.00
73103;BME280;61294;65.988;29.172;2024-03-02T05:15:05;98868.47;;;-1.99;100.00
73103;BME280;61294;65.988;29.172;2024-03-02T05:17:30;98861.66;;;-1.97;100.00
73103;BME280;61294;65.988;29.172;2024-03-02T05:19:56;98877.47;;;-1.91;100.00
73103;BME280;61294;65.988;29.172;2024-03-02T05:22:22;98867.81;;;-1.95;100.00
73103;BME280;61294;65.988;29.172;2024-03-02T05:24:47;98866.41;;;-1.88;100.00
73103;BME280;61294;65.988;29.172;2024-03-02T05:27:19;98874.97;;;-1.89;100.00
73103;BME280;61294;65.988;29.172;2024-03-02T05:29:45;98877.84;;;-1.83;100.00
73103;BME280;61294;65.988;29.172;2024-03-02T05:32:10;98867.16;;;-1.91;100.00
73103;BME280;61294;65.988;29.172;2024-03-02T05:34:36;98876.34;;;-1.96;100.00
73103;BME280;61294;65.988;29.172;2024-03-02T05:37:04;98879.34;;;-1.88;100.00
73103;BME280;61294;65.988;29.172;2024-03-02T05:39:32;98886.91;;;-1.91;100.00
73103;BME280;61294;65.988;29.172;2024-03-02T05:42:00;98888.03;;;-1.86;100.00
73103;BME280;61294;65.988;29.172;2024-03-02T05:44:25;98894.38;;;-1.79;100.00
73103;BME280;61294;65.988;29.172;2024-03-02T05:46:51;98891.59;;;-1.84;100.00
73103;BME280;61294;65.988;29.172;2024-03-02T05:49:19;98883.00;;;-1.83;100.00
73103;BME280;61294;65.988;29.172;2024-03-02T05:51:44;98881.06;;;-1.87;100.00
73103;BME280;61294;65.988;29.172;2024-03-02T05:54:10;98887.88;;;-1.89;100.00
73103;BME280;61294;65.988;29.172;2024-03-02T05:56:36;98884.84;;;-1.98;100.00
73103;BME280;61294;65.988;29.172;2024-03-02T05:59:01;98897.66;;;-2.00;100.00
73103;BME280;61294;65.988;29.172;2024-03-02T06:01:42;98891.25;;;-1.90;100.00
73103;BME280;61294;65.988;29.172;2024-03-02T06:04:11;98900.13;;;-1.85;100.00
73103;BME280;61294;65.988;29.172;2024-03-02T06:06:37;98899.75;;;-1.93;100.00
73103;BME280;61294;65.988;29.172;2024-03-02T06:09:03;98898.00;;;-1.94;100.00
73103;BME280;61294;65.988;29.172;2024-03-02T06:11:39;98899.66;;;-1.94;100.00
73103;BME280;61294;65.988;29.172;2024-03-02T06:14:05;98900.56;;;-1.94;100.00
73103;BME280;61294;65.988;29.172;2024-03-02T06:16:34;98892.00;;;-1.93;100.00
73103;BME280;61294;65.988;29.172;2024-03-02T06:19:00;98899.31;;;-2.02;100.00
73103;BME280;61294;65.988;29.172;2024-03-02T06:21:26;98893.69;;;-1.93;100.00
73103;BME280;61294;65.988;29.172;2024-03-02T06:23:52;98896.81;;;-1.82;100.00
73103;BME280;61294;65.988;29.172;2024-03-02T06:26:18;98876.44;;;-1.94;100.00
73103;BME280;61294;65.988;29.172;2024-03-02T06:28:43;98882.50;;;-1.94;100.00
73103;BME280;61294;65.988;29.172;2024-03-02T06:31:09;98883.59;;;-1.88;100.00
73103;BME280;61294;65.988;29.172;2024-03-02T06:33:35;98880.66;;;-1.96;100.00
73103;BME280;61294;65.988;29.172;2024-03-02T06:36:00;98875.56;;;-1.95;100.00
73103;BME280;61294;65.988;29.172;2024-03-02T06:38:26;98875.09;;;-1.86;100.00
73103;BME280;61294;65.988;29.172;2024-03-02T06:40:51;98877.47;;;-1.91;100.00
73103;BME280;61294;65.988;29.172;2024-03-02T06:43:17;98871.50;;;-1.89;100.00
73103;BME280;61294;65.988;29.172;2024-03-02T06:45:43;98870.31;;;-1.96;100.00
73103;BME280;61294;65.988;29.172;2024-03-02T06:48:08;98870.16;;;-1.81;100.00
73103;BME280;61294;65.988;29.172;2024-03-02T06:50:34;98882.19;;;-1.82;100.00
73103;BME280;61294;65.988;29.172;2024-03-02T06:52:59;98881.91;;;-1.88;100.00
73103;BME280;61294;65.988;29.172;2024-03-02T06:55:36;98887.38;;;-1.82;100.00
73103;BME280;61294;65.988;29.172;2024-03-02T07:01:10;98895.56;;;-1.91;100.00
73103;BME280;61294;65.988;29.172;2024-03-02T07:03:36;98905.72;;;-1.76;100.00
73103;BME280;61294;65.988;29.172;2024-03-02T07:06:09;98922.41;;;-1.87;100.00
73103;BME280;61294;65.988;29.172;2024-03-02T07:11:39;98931.53;;;-1.76;100.00
73103;BME280;61294;65.988;29.172;2024-03-02T07:14:23;98928.03;;;-1.78;100.00
73103;BME280;61294;65.988;29.172;2024-03-02T07:17:14;98926.09;;;-1.82;100.00
73103;BME280;61294;65.988;29.172;2024-03-02T07:20:02;98928.53;;;-1.67;100.00
73103;BME280;61294;65.988;29.172;2024-03-02T07:25:43;98929.47;;;-1.83;100.00
73103;BME280;61294;65.988;29.172;2024-03-02T07:28:29;98932.97;;;-1.82;100.00
73103;BME280;61294;65.988;29.172;2024-03-02T07:33:51;98932.28;;;-1.78;100.00
73103;BME280;61294;65.988;29.172;2024-03-02T07:36:19;98933.63;;;-1.68;100.00
73103;BME280;61294;65.988;29.172;2024-03-02T07:38:49;98929.63;;;-1.62;100.00
73103;BME280;61294;65.988;29.172;2024-03-02T07:41:38;98932.59;;;-1.72;100.00
73103;BME280;61294;65.988;29.172;2024-03-02T07:44:06;98949.69;;;-1.74;100.00
73103;BME280;61294;65.988;29.172;2024-03-02T07:46:42;98943.94;;;-1.68;100.00
73103;BME280;61294;65.988;29.172;2024-03-02T07:52:26;98955.78;;;-1.74;100.00
73103;BME280;61294;65.988;29.172;2024-03-02T07:57:57;98959.88;;;-1.77;100.00
73103;BME280;61294;65.988;29.172;2024-03-02T08:00:25;98952.34;;;-1.73;100.00
73103;BME280;61294;65.988;29.172;2024-03-02T08:03:03;98928.16;;;-1.75;100.00
73103;BME280;61294;65.988;29.172;2024-03-02T08:08:37;98919.84;;;-1.51;100.00
73103;BME280;61294;65.988;29.172;2024-03-02T08:11:25;98917.66;;;-1.60;100.00
73103;BME280;61294;65.988;29.172;2024-03-02T08:14:02;98902.47;;;-1.53;100.00
73103;BME280;61294;65.988;29.172;2024-03-02T08:16:28;98907.72;;;-1.52;100.00
73103;BME280;61294;65.988;29.172;2024-03-02T08:18:54;98913.38;;;-1.41;100.00
73103;BME280;61294;65.988;29.172;2024-03-02T08:21:29;98926.16;;;-1.44;100.00
73103;BME280;61294;65.988;29.172;2024-03-02T08:24:02;98927.34;;;-1.37;100.00
73103;BME280;61294;65.988;29.172;2024-03-02T08:26:28;98945.22;;;-1.42;100.00
73103;BME280;61294;65.988;29.172;2024-03-02T08:28:54;98944.03;;;-1.49;100.00
73103;BME280;61294;65.988;29.172;2024-03-02T08:31:20;98950.47;;;-1.41;100.00
73103;BME280;61294;65.988;29.172;2024-03-02T08:33:46;98943.56;;;-1.40;100.00
73103;BME280;61294;65.988;29.172;2024-03-02T08:36:11;98935.63;;;-1.45;100.00
73103;BME280;61294;65.988;29.172;2024-03-02T08:38:37;98942.19;;;-1.51;100.00
73103;BME280;61294;65.988;29.172;2024-03-02T08:41:03;98935.63;;;-1.45;100.00
73103;BME280;61294;65.988;29.172;2024-03-02T08:43:30;98949.47;;;-1.43;100.00
73103;BME280;61294;65.988;29.172;2024-03-02T08:45:56;98950.47;;;-1.41;100.00
73103;BME280;61294;65.988;29.172;2024-03-02T08:48:21;98937.41;;;-1.44;100.00
73103;BME280;61294;65.988;29.172;2024-03-02T08:50:47;98948.91;;;-1.55;100.00
73103;BME280;61294;65.988;29.172;2024-03-02T08:53:15;98959.38;;;-1.52;100.00
73103;BME280;61294;65.988;29.172;2024-03-02T08:55:46;98944.63;;;-1.54;100.00
73103;BME280;61294;65.988;29.172;2024-03-02T08:58:12;98958.88;;;-1.45;100.00
73103;BME280;61294;65.988;29.172;2024-03-02T09:00:37;98960.78;;;-1.41;100.00
73103;BME280;61294;65.988;29.172;2024-03-02T09:03:03;98974.00;;;-1.34;100.00
73103;BME280;61294;65.988;29.172;2024-03-02T09:05:28;98967.16;;;-1.34;100.00
73103;BME280;61294;65.988;29.172;2024-03-02T09:07:54;98962.91;;;-1.32;100.00
73103;BME280;61294;65.988;29.172;2024-03-02T09:10:22;98951.19;;;-1.25;100.00
73103;BME280;61294;65.988;29.172;2024-03-02T09:12:49;98955.75;;;-1.19;100.00
73103;BME280;61294;65.988;29.172;2024-03-02T09:15:15;98951.06;;;-1.09;100.00
73103;BME280;61294;65.988;29.172;2024-03-02T09:17:44;98967.84;;;-1.18;100.00
73103;BME280;61294;65.988;29.172;2024-03-02T09:20:09;98971.19;;;-1.21;100.00
73103;BME280;61294;65.988;29.172;2024-03-02T09:22:35;98969.69;;;-1.16;100.00
73103;BME280;61294;65.988;29.172;2024-03-02T09:25:00;98967.69;;;-1.22;100.00
73103;BME280;61294;65.988;29.172;2024-03-02T09:27:26;98955.81;;;-1.18;100.00
73103;BME280;61294;65.988;29.172;2024-03-02T09:29:52;98957.81;;;-1.12;100.00
73103;BME280;61294;65.988;29.172;2024-03-02T09:32:18;98960.69;;;-1.24;100.00
73103;BME280;61294;65.988;29.172;2024-03-02T09:34:43;98954.78;;;-1.22;100.00
73103;BME280;61294;65.988;29.172;2024-03-02T09:37:09;98952.13;;;-1.23;100.00
73103;BME280;61294;65.988;29.172;2024-03-02T09:39:34;98945.47;;;-1.18;100.00
73103;BME280;61294;65.988;29.172;2024-03-02T09:42:00;98949.91;;;-1.15;100.00
73103;BME280;61294;65.988;29.172;2024-03-02T09:44:25;98932.56;;;-1.18;100.00
73103;BME280;61294;65.988;29.172;2024-03-02T09:46:51;98935.00;;;-1.21;100.00
73103;BME280;61294;65.988;29.172;2024-03-02T09:49:17;98933.16;;;-1.24;100.00
73103;BME280;61294;65.988;29.172;2024-03-02T09:51:49;98932.69;;;-1.15;100.00
73103;BME280;61294;65.988;29.172;2024-03-02T09:54:17;98936.03;;;-1.17;100.00
73103;BME280;61294;65.988;29.172;2024-03-02T09:56:43;98922.16;;;-1.19;100.00
73103;BME280;61294;65.988;29.172;2024-03-02T09:59:09;98927.38;;;-1.18;100.00
73103;BME280;61294;65.988;29.172;2024-03-02T10:01:34;98932.41;;;-1.21;100.00
73103;BME280;61294;65.988;29.172;2024-03-02T10:04:00;98923.34;;;-1.31;100.00
73103;BME280;61294;65.988;29.172;2024-03-02T10:06:27;98921.91;;;-1.24;100.00
73103;BME280;61294;65.988;29.172;2024-03-02T10:08:54;98910.69;;;-1.25;100.00
73103;BME280;61294;65.988;29.172;2024-03-02T10:11:26;98919.50;;;-1.21;100.00
73103;BME280;61294;65.988;29.172;2024-03-02T10:14:05;98916.22;;;-1.17;100.00
73103;BME280;61294;65.988;29.172;2024-03-02T10:16:35;98914.06;;;-1.08;100.00
73103;BME280;61294;65.988;29.172;2024-03-02T10:19:43;98917.25;;;-1.13;100.00
73103;BME280;61294;65.988;29.172;2024-03-02T10:21:53;98902.34;;;-1.19;100.00
73103;BME280;61294;65.988;29.172;2024-03-02T10:24:19;98904.25;;;-1.15;100.00
73103;BME280;61294;65.988;29.172;2024-03-02T10:26:45;98912.69;;;-1.19;100.00
73103;BME280;61294;65.988;29.172;2024-03-02T10:29:10;98910.22;;;-1.16;100.00
73103;BME280;61294;65.988;29.172;2024-03-02T10:31:37;98917.25;;;-1.13;100.00
73103;BME280;61294;65.988;29.172;2024-03-02T10:34:02;98926.78;;;-1.12;100.00
73103;BME280;61294;65.988;29.172;2024-03-02T10:36:28;98936.38;;;-1.10;100.00
73103;BME280;61294;65.988;29.172;2024-03-02T10:38:55;98939.25;;;-1.03;100.00
73103;BME280;61294;65.988;29.172;2024-03-02T10:41:24;98945.50;;;-0.98;100.00
73103;BME280;61294;65.988;29.172;2024-03-02T10:43:52;98958.09;;;-1.06;100.00
73103;BME280;61294;65.988;29.172;2024-03-02T10:46:20;98958.09;;;-1.06;100.00
73103;BME280;61294;65.988;29.172;2024-03-02T10:48:46;98966.72;;;-1.06;100.00
73103;BME280;61294;65.988;29.172;2024-03-02T10:51:12;98960.53;;;-1.09;100.00
73103;BME280;61294;65.988;29.172;2024-03-02T10:53:37;98953.13;;;-1.01;100.00
73103;BME280;61294;65.988;29.172;2024-03-02T10:56:03;98955.94;;;-0.97;100.00
73103;BME280;61294;65.988;29.172;2024-03-02T10:58:32;98950.00;;;-0.94;100.00
73103;BME280;61294;65.988;29.172;2024-03-02T11:01:03;98961.31;;;-0.92;100.00
73103;BME280;61294;65.988;29.172;2024-03-02T11:03:33;98966.41;;;-0.94;100.00
73103;BME280;61294;65.988;29.172;2024-03-02T11:06:00;98960.34;;;-0.94;100.00
73103;BME280;61294;65.988;29.172;2024-03-02T11:08:26;98965.75;;;-0.90;100.00
73103;BME280;61294;65.988;29.172;2024-03-02T11:11:00;98970.09;;;-0.89;100.00
73103;BME280;61294;65.988;29.172;2024-03-02T11:13:32;98972.28;;;-0.78;100.00
73103;BME280;61294;65.988;29.172;2024-03-02T11:16:32;98982.66;;;-0.78;100.00
73103;BME280;61294;65.988;29.172;2024-03-02T11:18:50;98974.72;;;-0.81;100.00
73103;BME280;61294;65.988;29.172;2024-03-02T11:21:16;98972.19;;;-0.80;100.00
73103;BME280;61294;65.988;29.172;2024-03-02T11:23:42;98973.91;;;-0.80;100.00
73103;BME280;61294;65.988;29.172;2024-03-02T11:26:20;98980.25;;;-0.74;100.00
73103;BME280;61294;65.988;29.172;2024-03-02T11:28:46;98977.19;;;-0.65;100.00
73103;BME280;61294;65.988;29.172;2024-03-02T11:31:11;98985.38;;;-0.75;100.00
73103;BME280;61294;65.988;29.172;2024-03-02T11:33:37;98986.50;;;-0.68;100.00
73103;BME280;61294;65.988;29.172;2024-03-02T11:36:02;98985.75;;;-0.66;100.00
73103;BME280;61294;65.988;29.172;2024-03-02T11:38:29;98981.19;;;-0.72;100.00
73103;BME280;61294;65.988;29.172;2024-03-02T11:40:55;98982.09;;;-0.71;100.00
73103;BME280;61294;65.988;29.172;2024-03-02T11:43:21;98989.69;;;-0.74;100.00
73103;BME280;61294;65.988;29.172;2024-03-02T11:45:46;98979.84;;;-0.63;100.00
73103;BME280;61294;65.988;29.172;2024-03-02T11:48:15;98987.22;;;-0.73;100.00
73103;BME280;61294;65.988;29.172;2024-03-02T11:50:48;98988.03;;;-0.74;100.00
73103;BME280;61294;65.988;29.172;2024-03-02T11:53:14;98975.41;;;-0.85;100.00
73103;BME280;61294;65.988;29.172;2024-03-02T11:55:43;98973.84;;;-0.82;100.00
73103;BME280;61294;65.988;29.172;2024-03-02T11:58:11;98974.69;;;-0.63;100.00
73103;BME280;61294;65.988;29.172;2024-03-02T12:00:37;98978.13;;;-0.63;100.00
73103;BME280;61294;65.988;29.172;2024-03-02T12:03:06;98984.91;;;-0.47;100.00
73103;BME280;61294;65.988;29.172;2024-03-02T12:05:32;98977.06;;;-0.48;100.00
73103;BME280;61294;65.988;29.172;2024-03-02T12:08:07;98985.72;;;-0.48;100.00
73103;BME280;61294;65.988;29.172;2024-03-02T12:10:33;98975.97;;;-0.54;100.00
73103;BME280;61294;65.988;29.172;2024-03-02T12:12:59;98972.59;;;-0.53;100.00
73103;BME280;61294;65.988;29.172;2024-03-02T12:15:43;98976.47;;;-0.43;100.00
73103;BME280;61294;65.988;29.172;2024-03-02T12:18:09;98988.25;;;-0.49;100.00
73103;BME280;61294;65.988;29.172;2024-03-02T12:20:35;98991.44;;;-0.55;100.00
73103;BME280;61294;65.988;29.172;2024-03-02T12:23:01;98988.16;;;-0.51;100.00
73103;BME280;61294;65.988;29.172;2024-03-02T12:25:27;98983.00;;;-0.51;100.00
73103;BME280;61294;65.988;29.172;2024-03-02T12:27:58;98976.66;;;-0.58;100.00
73103;BME280;61294;65.988;29.172;2024-03-02T12:30:26;98985.78;;;-0.46;100.00
73103;BME280;61294;65.988;29.172;2024-03-02T12:32:52;98989.31;;;-0.44;100.00
73103;BME280;61294;65.988;29.172;2024-03-02T12:35:17;98992.38;;;-0.53;100.00
73103;BME280;61294;65.988;29.172;2024-03-02T12:40:09;99002.31;;;-0.62;100.00
73103;BME280;61294;65.988;29.172;2024-03-02T12:42:35;98998.94;;;-0.61;100.00
73103;BME280;61294;65.988;29.172;2024-03-02T12:45:01;99002.41;;;-0.61;100.00
73103;BME280;61294;65.988;29.172;2024-03-02T12:47:26;98995.69;;;-0.56;100.00
73103;BME280;61294;65.988;29.172;2024-03-02T12:49:51;98997.69;;;-0.70;100.00
73103;BME280;61294;65.988;29.172;2024-03-02T12:52:17;99003.19;;;-0.62;100.00
73103;BME280;61294;65.988;29.172;2024-03-02T12:54:43;99009.63;;;-0.54;100.00
73103;BME280;61294;65.988;29.172;2024-03-02T12:57:09;99003.91;;;-0.46;100.00
73103;BME280;61294;65.988;29.172;2024-03-02T12:59:34;99000.81;;;-0.57;100.00
73103;BME280;61294;65.988;29.172;2024-03-02T13:02:00;98997.00;;;-0.46;100.00
73103;BME280;61294;65.988;29.172;2024-03-02T13:04:28;98998.78;;;-0.45;100.00
73103;BME280;61294;65.988;29.172;2024-03-02T13:06:54;99013.91;;;-0.54;100.00
73103;BME280;61294;65.988;29.172;2024-03-02T13:09:21;98997.28;;;-0.59;100.00
73103;BME280;61294;65.988;29.172;2024-03-02T13:11:46;98971.41;;;-0.59;100.00
73103;BME280;61294;65.988;29.172;2024-03-02T13:14:12;99001.66;;;-0.58;100.00
73103;BME280;61294;65.988;29.172;2024-03-02T13:16:38;99007.72;;;-0.58;100.00
73103;BME280;61294;65.988;29.172;2024-03-02T13:19:07;99005.84;;;-0.60;100.00
73103;BME280;61294;65.988;29.172;2024-03-02T13:21:33;99006.00;;;-0.57;100.00
73103;BME280;61294;65.988;29.172;2024-03-02T13:23:58;99001.13;;;-0.51;100.00
73103;BME280;61294;65.988;29.172;2024-03-02T13:26:25;98995.97;;;-0.69;100.00
73103;BME280;61294;65.988;29.172;2024-03-02T13:28:51;99011.44;;;-0.71;100.00
73103;BME280;61294;65.988;29.172;2024-03-02T13:31:16;99007.66;;;-0.77;100.00
73103;BME280;61294;65.988;29.172;2024-03-02T13:33:42;99005.22;;;-0.74;100.00
73103;BME280;61294;65.988;29.172;2024-03-02T13:36:07;99011.09;;;-0.78;100.00
73103;BME280;61294;65.988;29.172;2024-03-02T13:38:33;98996.97;;;-0.85;100.00
73103;BME280;61294;65.988;29.172;2024-03-02T13:40:58;99000.59;;;-0.81;100.00
73103;BME280;61294;65.988;29.172;2024-03-02T13:43:26;99000.81;;;-0.77;100.00